Time;durP1;ratioP1;P1;durP2;ratioP2;P2;SDS_P1;SDS_P2;PMS_P1;PMS_P2;Temp;Humidity;BMP_temperature;BMP_pressure;BME280_temperature;BME280_humidity;BME280_pressure;Samples;Min_cycle;Max_cycle;Signal;HPM_P1;HPM_P2
2023/09/05 00:02:04;;;;;;;39.80;3.10;;;15.90;1.00;;;;;;5028556;28;20900;-81
2023/09/05 00:05:05;;;;;;;38.00;3.57;;;15.90;1.00;;;;;;5034158;28;20412;-81
2023/09/05 00:07:37;;;;;;;39.13;3.37;;;15.90;1.00;;;;;;5024666;28;20446;-81
2023/09/05 00:10:12;;;;;;;37.17;3.40;;;15.90;1.00;;;;;;5020131;28;20886;-81
2023/09/05 00:12:40;;;;;;;38.63;3.57;;;15.90;1.00;;;;;;5022653;28;20860;-81
2023/09/05 00:15:27;;;;;;;40.07;3.73;;;15.80;1.00;;;;;;5021493;28;20423;-81
2023/09/05 00:18:04;;;;;;;39.70;3.20;;;15.80;1.00;;;;;;5032347;28;20436;-81
2023/09/05 00:20:33;;;;;;;37.07;3.47;;;15.80;1.00;;;;;;5027526;28;20435;-81
2023/09/05 00:23:33;;;;;;;36.93;3.60;;;15.80;1.00;;;;;;5023927;28;20436;-81
2023/09/05 00:26:21;;;;;;;38.00;3.00;;;15.80;1.00;;;;;;5016390;28;20427;-81
2023/09/05 00:28:57;;;;;;;36.87;3.20;;;15.80;1.00;;;;;;5024549;28;20440;-81
2023/09/05 00:31:27;;;;;;;46.50;3.83;;;15.90;1.00;;;;;;5020784;28;20440;-81
2023/09/05 00:33:57;;;;;;;37.00;3.80;;;15.90;1.00;;;;;;5022261;28;20428;-81
2023/09/05 00:36:58;;;;;;;37.53;3.57;;;15.80;1.00;;;;;;5029612;28;20849;-81
2023/09/05 00:39:28;;;;;;;36.20;3.33;;;15.80;1.00;;;;;;5033823;28;20486;-81
2023/09/05 00:41:56;;;;;;;38.87;3.73;;;15.80;1.00;;;;;;5033099;28;20432;-81
2023/09/05 00:44:33;;;;;;;39.47;3.67;;;15.70;1.00;;;;;;5027008;28;20416;-81
2023/09/05 00:47:00;;;;;;;43.07;3.57;;;15.80;1.00;;;;;;5020197;28;20406;-82
2023/09/05 00:49:28;;;;;;;38.20;4.00;;;15.70;1.00;;;;;;5020775;28;20409;-81
2023/09/05 00:51:59;;;;;;;37.97;3.50;;;15.80;1.00;;;;;;5026547;28;20526;-81
2023/09/05 00:54:37;;;;;;;36.47;3.10;;;15.70;1.00;;;;;;5027186;28;20439;-81
2023/09/05 00:57:17;;;;;;;36.23;3.53;;;15.70;1.00;;;;;;5023536;28;20948;-81
2023/09/05 00:59:45;;;;;;;35.20;3.30;;;15.70;1.00;;;;;;5025574;28;20398;-81
2023/09/05 01:02:27;;;;;;;37.60;3.30;;;15.70;1.00;;;;;;5018896;28;20909;-81
2023/09/05 01:04:57;;;;;;;37.47;3.20;;;15.70;1.00;;;;;;5025701;28;20397;-81
2023/09/05 01:07:50;;;;;;;37.30;3.57;;;15.60;1.00;;;;;;5013071;28;20432;-81
2023/09/05 01:10:43;;;;;;;38.07;2.90;;;15.60;1.00;;;;;;5025265;28;20426;-81
2023/09/05 01:13:51;;;;;;;38.13;3.60;;;15.60;1.00;;;;;;5027738;28;20960;-81
2023/09/05 01:16:46;;;;;;;35.50;3.03;;;15.60;1.00;;;;;;5028148;28;20431;-81
2023/09/05 01:19:17;;;;;;;35.30;3.30;;;15.60;1.00;;;;;;5018179;28;20420;-81
2023/09/05 01:22:10;;;;;;;45.87;3.60;;;15.50;1.00;;;;;;5027083;28;20915;-81
2023/09/05 01:24:38;;;;;;;35.80;3.43;;;15.50;1.00;;;;;;5022338;28;20742;-81
2023/09/05 01:27:05;;;;;;;38.20;3.30;;;15.50;1.00;;;;;;5024258;28;20419;-81
2023/09/05 01:29:36;;;;;;;36.60;3.40;;;15.50;1.00;;;;;;5030042;28;20447;-82
2023/09/05 01:32:10;;;;;;;41.73;3.60;;;15.50;1.00;;;;;;5033265;28;20390;-81
2023/09/05 01:34:45;;;;;;;37.13;3.07;;;15.50;1.00;;;;;;5027798;28;20789;-82
2023/09/05 01:37:16;;;;;;;44.93;4.00;;;15.50;1.00;;;;;;5027740;28;20834;-80
2023/09/05 01:39:45;;;;;;;36.30;3.67;;;15.50;1.00;;;;;;5025051;28;20439;-81
2023/09/05 01:42:15;;;;;;;35.20;3.30;;;15.40;1.00;;;;;;5026258;28;20386;-81
2023/09/05 01:44:41;;;;;;;37.43;3.97;;;15.40;1.00;;;;;;5033313;28;20423;-81
2023/09/05 01:47:33;;;;;;;37.57;3.83;;;15.60;1.00;;;;;;5027433;28;20429;-80
2023/09/05 01:49:59;;;;;;;38.17;3.13;;;15.40;1.00;;;;;;5029527;28;20172;-81
2023/09/05 01:52:33;;;;;;;35.50;3.20;;;15.40;1.00;;;;;;5043973;28;20430;-81
2023/09/05 01:55:03;;;;;;;39.53;3.20;;;15.40;1.00;;;;;;5021169;28;20185;-82
2023/09/05 01:57:30;;;;;;;36.10;3.33;;;15.30;1.00;;;;;;5014260;28;20421;-81
2023/09/05 02:00:04;;;;;;;47.83;5.00;;;15.30;1.00;;;;;;5025421;28;20918;-81
2023/09/05 02:02:29;;;;;;;36.90;3.23;;;15.30;1.00;;;;;;5023617;28;20412;-81
2023/09/05 02:04:57;;;;;;;38.20;3.17;;;15.30;1.00;;;;;;5015318;28;20472;-81
2023/09/05 02:07:33;;;;;;;39.43;3.27;;;15.30;1.00;;;;;;5032835;28;20479;-81
2023/09/05 02:10:05;;;;;;;38.30;3.97;;;15.30;1.00;;;;;;5021098;28;20905;-81
2023/09/05 02:12:35;;;;;;;37.27;3.30;;;15.30;1.00;;;;;;5029106;28;20480;-81
2023/09/05 02:15:03;;;;;;;36.43;3.27;;;15.30;1.00;;;;;;5025086;28;20398;-81
2023/09/05 02:17:34;;;;;;;44.83;3.50;;;15.30;1.00;;;;;;5031964;28;20456;-81
2023/09/05 02:20:04;;;;;;;36.97;3.27;;;15.30;1.00;;;;;;5031948;28;20919;-81
2023/09/05 02:22:33;;;;;;;36.67;3.53;;;15.30;1.00;;;;;;5020302;28;20452;-81
2023/09/05 02:25:03;;;;;;;38.30;4.10;;;15.30;1.00;;;;;;5026665;28;20429;-81
2023/09/05 02:27:29;;;;;;;35.43;3.10;;;15.30;1.00;;;;;;5033562;28;20415;-81
2023/09/05 02:29:58;;;;;;;36.60;3.70;;;15.30;1.00;;;;;;5032165;28;20833;-81
2023/09/05 02:32:24;;;;;;;50.23;3.50;;;15.30;1.00;;;;;;5031971;28;20210;-81
2023/09/05 02:35:05;;;;;;;36.93;3.50;;;15.30;1.00;;;;;;5024136;28;20449;-81
2023/09/05 02:37:33;;;;;;;44.13;3.43;;;15.30;1.00;;;;;;5029731;28;20418;-81
2023/09/05 02:40:03;;;;;;;36.10;3.30;;;15.40;1.00;;;;;;5025364;28;20400;-81
2023/09/05 02:42:33;;;;;;;46.43;3.70;;;15.40;1.00;;;;;;5027646;28;20460;-81
2023/09/05 02:45:04;;;;;;;38.53;3.70;;;15.40;1.00;;;;;;5014289;28;20498;-81
2023/09/05 02:47:29;;;;;;;38.27;3.70;;;15.30;1.00;;;;;;5028140;28;20420;-81
2023/09/05 02:49:57;;;;;;;36.30;3.50;;;15.50;1.00;;;;;;5019636;28;20431;-81
2023/09/05 02:52:45;;;;;;;37.57;3.23;;;15.40;1.00;;;;;;5031488;28;20272;-81
2023/09/05 02:55:27;;;;;;;38.77;3.70;;;15.40;1.00;;;;;;5030511;28;20447;-81
2023/09/05 02:58:03;;;;;;;36.60;2.90;;;15.40;1.00;;;;;;5031784;28;20413;-81
2023/09/05 03:00:29;;;;;;;35.20;3.20;;;15.30;1.00;;;;;;5027299;28;20511;-81
2023/09/05 03:03:27;;;;;;;42.80;3.30;;;15.30;1.00;;;;;;5023012;28;20511;-80
2023/09/05 03:06:33;;;;;;;35.77;2.97;;;15.30;1.00;;;;;;5024059;28;20653;-81
2023/09/05 03:09:03;;;;;;;40.23;3.23;;;15.30;1.00;;;;;;5016838;28;20424;-81
2023/09/05 03:11:38;;;;;;;42.10;3.20;;;15.20;1.00;;;;;;5025664;28;20439;-81
2023/09/05 03:14:21;;;;;;;36.33;3.30;;;15.20;1.00;;;;;;5019442;28;20437;-80
2023/09/05 03:17:21;;;;;;;35.43;3.20;;;15.20;1.00;;;;;;5034856;28;20447;-80
2023/09/05 03:20:15;;;;;;;39.00;3.33;;;15.20;1.00;;;;;;5016226;28;20524;-81
2023/09/05 03:23:03;;;;;;;37.23;3.23;;;15.20;1.00;;;;;;5031037;28;20780;-81
2023/09/05 03:25:39;;;;;;;37.77;3.53;;;15.20;1.00;;;;;;5029794;28;20963;-81
2023/09/05 03:28:12;;;;;;;37.60;3.13;;;15.10;1.00;;;;;;5029813;28;20423;-81
2023/09/05 03:30:40;;;;;;;36.87;3.57;;;15.10;1.00;;;;;;5028897;28;20417;-82
2023/09/05 03:33:45;;;;;;;35.63;3.37;;;15.10;1.00;;;;;;5016394;28;20392;-81
2023/09/05 03:36:16;;;;;;;38.97;3.20;;;15.00;1.00;;;;;;5034554;28;20438;-81
2023/09/05 03:38:42;;;;;;;36.43;3.77;;;15.00;1.00;;;;;;5031367;28;20435;-81
2023/09/05 03:41:28;;;;;;;35.17;3.30;;;14.90;1.00;;;;;;5033284;28;20427;-81
2023/09/05 03:47:15;;;;;;;38.93;3.53;;;14.90;1.00;;;;;;5022645;28;20412;-80
2023/09/05 03:49:45;;;;;;;38.50;4.10;;;14.90;1.00;;;;;;5033798;28;20386;-80
2023/09/05 03:52:57;;;;;;;36.90;3.67;;;14.80;1.00;;;;;;5031841;28;20501;-81
2023/09/05 03:56:03;;;;;;;40.13;3.70;;;14.80;1.00;;;;;;5018609;28;20509;-81
2023/09/05 03:58:40;;;;;;;38.00;3.40;;;14.70;1.00;;;;;;5043330;28;20463;-81
2023/09/05 04:01:16;;;;;;;37.47;3.53;;;14.70;1.00;;;;;;5019184;28;20423;-81
2023/09/05 04:03:51;;;;;;;37.40;3.53;;;14.70;1.00;;;;;;5031740;28;20806;-81
2023/09/05 04:06:51;;;;;;;38.90;3.90;;;14.60;1.00;;;;;;5021004;28;20429;-81
2023/09/05 04:09:50;;;;;;;43.40;3.57;;;14.60;1.00;;;;;;5018444;28;20443;-81
2023/09/05 04:12:16;;;;;;;39.33;3.83;;;14.60;1.00;;;;;;5026372;28;20409;-81
2023/09/05 04:14:48;;;;;;;36.87;3.30;;;14.60;1.00;;;;;;5033263;28;20381;-81
2023/09/05 04:17:27;;;;;;;37.90;3.60;;;14.70;1.00;;;;;;5015349;28;20637;-81
2023/09/05 04:20:15;;;;;;;36.00;3.87;;;14.50;1.00;;;;;;5021224;28;20761;-81
2023/09/05 04:22:57;;;;;;;39.57;3.63;;;14.40;1.00;;;;;;5031943;28;20412;-81
2023/09/05 04:26:09;;;;;;;40.70;3.80;;;14.40;1.00;;;;;;5018621;28;20415;-81
2023/09/05 04:32:04;;;;;;;37.87;3.77;;;14.40;1.00;;;;;;5028359;28;20512;-86
2023/09/05 04:34:34;;;;;;;42.30;3.67;;;14.30;1.00;;;;;;5025440;28;20401;-86
2023/09/05 04:37:03;;;;;;;37.30;3.67;;;14.30;1.00;;;;;;5015338;28;20469;-86
2023/09/05 04:39:34;;;;;;;37.67;3.43;;;14.30;1.00;;;;;;5015530;28;20396;-86
2023/09/05 04:42:33;;;;;;;36.60;3.53;;;14.30;1.00;;;;;;5019049;28;20422;-86
2023/09/05 04:45:33;;;;;;;35.67;3.80;;;14.20;1.00;;;;;;5027781;28;20438;-85
2023/09/05 04:48:04;;;;;;;36.93;3.50;;;14.10;1.00;;;;;;5035049;28;20423;-85
2023/09/05 04:50:33;;;;;;;43.70;3.60;;;14.10;1.00;;;;;;5028689;28;20423;-85
2023/09/05 04:53:03;;;;;;;38.27;3.97;;;14.10;1.00;;;;;;5024657;28;20477;-85
2023/09/05 04:56:00;;;;;;;36.90;3.97;;;14.10;1.00;;;;;;5031369;28;20450;-85
2023/09/05 05:02:34;;;;;;;36.57;3.70;;;14.10;1.00;;;;;;5028552;28;20883;-87
2023/09/05 05:05:04;;;;;;;42.73;4.20;;;14.10;1.00;;;;;;5024815;28;20406;-86
2023/09/05 05:07:33;;;;;;;36.27;3.90;;;14.10;1.00;;;;;;5023154;28;20394;-87
2023/09/05 05:10:37;;;;;;;38.10;3.80;;;14.10;1.00;;;;;;5032557;28;20408;-87
2023/09/05 05:13:04;;;;;;;37.20;4.00;;;14.20;1.00;;;;;;5033621;28;20425;-85
2023/09/05 05:16:03;;;;;;;39.37;4.03;;;14.20;1.00;;;;;;5031138;28;20397;-87
2023/09/05 05:18:33;;;;;;;36.97;3.83;;;14.20;1.00;;;;;;5021162;28;20411;-85
2023/09/05 05:21:04;;;;;;;35.80;3.60;;;14.70;1.00;;;;;;5043977;28;20424;-84
2023/09/05 05:23:33;;;;;;;38.30;4.10;;;14.30;1.00;;;;;;5019611;28;20419;-84
2023/09/05 05:26:33;;;;;;;38.87;3.97;;;14.90;1.00;;;;;;5028755;28;20409;-85
2023/09/05 05:29:39;;;;;;;36.80;3.57;;;14.30;1.00;;;;;;5023271;28;20431;-84
2023/09/05 05:32:33;;;;;;;35.60;3.43;;;14.40;1.00;;;;;;5033206;28;20437;-82
2023/09/05 05:35:34;;;;;;;38.83;3.80;;;14.40;1.00;;;;;;5034378;28;20501;-84
2023/09/05 05:38:03;;;;;;;37.50;4.20;;;14.40;1.00;;;;;;5026607;28;20442;-84
2023/09/05 05:40:33;;;;;;;41.57;4.30;;;14.40;1.00;;;;;;5021673;28;20496;-84
2023/09/05 05:43:10;;;;;;;36.13;3.97;;;;;;;;;;5032140;28;20446;-84
2023/09/05 05:45:36;;;;;;;39.00;4.00;;;14.60;1.00;;;;;;5025282;28;20900;-84
2023/09/05 05:48:07;;;;;;;38.60;3.97;;;14.60;1.00;;;;;;5027460;28;20512;-84
2023/09/05 05:51:03;;;;;;;38.97;4.33;;;14.70;1.00;;;;;;5023757;28;20226;-84
2023/09/05 05:53:29;;;;;;;39.50;4.73;;;14.80;1.00;;;;;;5021152;28;20441;-84
2023/09/05 05:56:34;;;;;;;42.53;3.90;;;14.90;1.00;;;;;;5027624;28;20900;-84
2023/09/05 05:59:00;;;;;;;43.73;4.77;;;14.90;1.00;;;;;;5026619;28;20203;-84
2023/09/05 06:01:34;;;;;;;40.53;4.27;;;15.00;1.00;;;;;;5028570;28;20492;-82
2023/09/05 06:04:03;;;;;;;39.57;4.10;;;15.20;1.00;;;;;;5015339;28;20747;-83
2023/09/05 06:06:34;;;;;;;42.73;4.73;;;15.10;1.00;;;;;;5032184;28;20416;-82
2023/09/05 06:09:27;;;;;;;38.50;4.40;;;15.20;1.00;;;;;;5029351;28;20435;-83
2023/09/05 06:11:53;;;;;;;40.00;3.97;;;15.30;1.00;;;;;;5022813;28;20455;-81
2023/09/05 06:14:21;;;;;;;41.47;3.93;;;15.40;1.00;;;;;;5015764;28;20516;-82
2023/09/05 06:27:06;;;;;;;42.03;4.37;;;15.90;1.00;;;;;;5037361;28;20435;-86
2023/09/05 06:29:40;;;;;;;39.10;4.20;;;16.00;1.00;;;;;;5022968;28;20394;-85
2023/09/05 06:35:39;;;;;;;50.33;3.80;;;16.20;1.00;;;;;;5020767;28;20420;-86
2023/09/05 06:38:57;;;;;;;37.47;3.73;;;16.30;1.00;;;;;;5036137;28;20434;-85
2023/09/05 06:42:15;;;;;;;37.90;3.93;;;16.50;1.00;;;;;;5036821;28;20405;-85
2023/09/05 06:44:58;;;;;;;38.80;3.83;;;;;;;;;;5036560;28;20426;-85
2023/09/05 06:48:03;;;;;;;39.53;3.90;;;16.70;1.00;;;;;;5034995;28;20420;-83
2023/09/05 06:54:03;;;;;;;42.17;3.90;;;17.00;1.00;;;;;;5023340;28;20481;-83
2023/09/05 06:57:21;;;;;;;42.17;4.20;;;17.20;1.00;;;;;;5027383;28;20428;-83
2023/09/05 07:03:08;;;;;;;41.60;5.03;;;17.50;1.00;;;;;;5017380;28;20345;-85
2023/09/05 07:05:57;;;;;;;39.83;3.60;;;17.90;1.00;;;;;;5035006;28;20512;-86
2023/09/05 07:08:51;;;;;;;38.30;3.03;;;17.90;1.00;;;;;;5036721;28;20653;-85
2023/09/05 07:11:18;;;;;;;35.37;3.23;;;18.00;1.00;;;;;;5036167;28;20425;-85
2023/09/05 07:20:40;;;;;;;37.30;3.30;;;18.50;1.00;;;;;;5021590;28;20942;-86
2023/09/05 07:26:28;;;;;;;41.80;3.43;;;18.70;1.00;;;;;;5021149;28;20386;-85
2023/09/05 07:28:54;;;;;;;37.10;3.30;;;18.80;1.00;;;;;;5028598;28;20518;-84
2023/09/05 07:34:41;;;;;;;35.93;3.00;;;19.00;1.00;;;;;;5031442;28;20410;-84
2023/09/05 07:37:51;;;;;;;35.03;3.10;;;19.10;1.00;;;;;;5027110;28;20448;-84
2023/09/05 07:40:33;;;;;;;40.83;3.50;;;19.20;1.00;;;;;;5023100;28;20184;-84
2023/09/05 07:43:15;;;;;;;36.10;2.80;;;19.40;1.00;;;;;;5041488;28;20423;-84
2023/09/05 07:49:04;;;;;;;35.27;2.90;;;19.60;1.00;;;;;;5029661;28;20725;-85
2023/09/05 07:54:52;;;;;;;39.80;2.60;;;20.00;1.00;;;;;;5027454;28;21014;-85
2023/09/05 08:04:02;;;;;;;35.60;2.93;;;;;;;;;;5020663;28;20416;-85
2023/09/05 08:09:50;;;;;;;36.80;2.80;;;20.70;1.00;;;;;;5031866;28;20450;-85
2023/09/05 08:22:22;;;;;;;35.30;2.57;;;21.10;1.00;;;;;;5015874;28;20368;-85
2023/09/05 08:31:32;;;;;;;35.60;2.93;;;21.40;1.00;;;;;;5018018;28;20395;-85
2023/09/05 08:44:16;;;;;;;36.50;2.70;;;21.90;1.00;;;;;;5026429;28;20497;-85
2023/09/05 08:53:40;;;;;;;40.53;3.10;;;22.30;1.00;;;;;;5024526;28;20392;-85
2023/09/05 08:56:28;;;;;;;35.60;2.70;;;22.40;1.00;;;;;;5034391;28;20464;-85
2023/09/05 09:05:37;;;;;;;35.10;3.00;;;22.60;1.00;;;;;;5034811;28;20438;-86
2023/09/05 09:11:28;;;;;;;38.27;3.67;;;22.80;1.00;;;;;;5027514;28;20189;-85
2023/09/05 09:14:09;;;;;;;34.50;3.33;;;23.00;1.00;;;;;;5019494;28;20463;-85
2023/09/05 09:16:52;;;;;;;35.67;3.77;;;23.10;1.00;;;;;;5015046;28;20428;-85
2023/09/05 09:22:43;;;;;;;34.13;3.80;;;23.20;1.00;;;;;;5024970;28;20446;-85
2023/09/05 09:25:23;;;;;;;33.40;3.37;;;23.40;1.00;;;;;;5032000;28;20423;-85
2023/09/05 09:31:51;;;;;;;34.40;3.90;;;23.60;1.00;;;;;;5023830;28;20425;-86
2023/09/05 09:34:51;;;;;;;35.63;4.00;;;23.70;1.00;;;;;;5033254;28;20509;-86
2023/09/05 09:40:40;;;;;;;37.97;4.37;;;23.80;1.00;;;;;;5024537;28;20407;-86
2023/09/05 09:46:28;;;;;;;32.20;3.60;;;24.00;1.00;;;;;;5032952;28;20401;-86
2023/09/05 09:52:20;;;;;;;32.37;3.40;;;24.30;1.00;;;;;;5032288;28;20735;-86
2023/09/05 09:54:47;;;;;;;33.43;3.43;;;24.40;1.00;;;;;;5023437;28;20438;-86
2023/09/05 09:57:24;;;;;;;31.73;3.30;;;24.40;1.00;;;;;;5028423;28;20468;-86
2023/09/05 10:00:22;;;;;;;32.70;3.43;;;24.50;1.00;;;;;;5021871;28;20426;-86
2023/09/05 10:03:08;;;;;;;32.67;3.20;;;24.60;1.00;;;;;;5022559;28;20518;-86
2023/09/05 10:09:50;;;;;;;32.63;3.33;;;24.80;1.00;;;;;;5020730;28;20528;-86
2023/09/05 10:12:20;;;;;;;31.87;2.80;;;24.90;1.00;;;;;;5026158;28;20438;-86
2023/09/05 10:18:12;;;;;;;30.70;2.50;;;25.10;1.00;;;;;;5015315;28;20454;-86
2023/09/05 10:27:28;;;;;;;33.77;2.40;;;25.40;1.00;;;;;;5028398;28;20426;-85
2023/09/05 10:30:04;;;;;;;31.60;2.57;;;25.40;1.00;;;;;;5022149;28;20489;-85
2023/09/05 10:32:41;;;;;;;29.80;2.53;;;25.70;1.00;;;;;;5029955;28;20432;-86
2023/09/05 10:38:36;;;;;;;33.20;2.33;;;25.70;1.00;;;;;;5020517;28;20419;-86
2023/09/05 10:41:04;;;;;;;30.87;2.70;;;25.70;1.00;;;;;;5019185;28;20526;-86
2023/09/05 10:43:30;;;;;;;31.13;2.30;;;25.70;1.00;;;;;;5021276;28;20453;-86
2023/09/05 10:46:04;;;;;;;31.63;2.60;;;25.80;1.00;;;;;;5031990;28;20434;-85
2023/09/05 10:48:40;;;;;;;34.53;2.23;;;25.80;1.00;;;;;;5028895;28;20173;-85
2023/09/05 10:51:33;;;;;;;32.60;2.27;;;25.80;1.00;;;;;;5028274;28;20424;-86
2023/09/05 10:57:39;;;;;;;30.83;2.30;;;26.00;1.00;;;;;;5027580;28;20438;-81
2023/09/05 11:00:38;;;;;;;29.77;2.13;;;26.10;1.00;;;;;;5023447;28;20922;-81
2023/09/05 11:03:15;;;;;;;29.70;2.17;;;26.20;1.00;;;;;;5021107;28;20402;-81
2023/09/05 11:05:58;;;;;;;31.67;2.77;;;26.20;1.00;;;;;;5030305;28;20423;-82
2023/09/05 11:08:29;;;;;;;29.03;2.00;;;26.20;1.00;;;;;;5025229;28;20850;-81
2023/09/05 11:11:04;;;;;;;35.93;2.30;;;26.20;1.00;;;;;;5027585;28;20511;-82
2023/09/05 11:13:34;;;;;;;31.23;2.27;;;26.40;1.00;;;;;;5019125;28;20595;-82
2023/09/05 11:16:10;;;;;;;29.30;2.17;;;26.40;1.00;;;;;;5036279;28;20462;-82
2023/09/05 11:18:46;;;;;;;31.27;1.97;;;26.50;1.00;;;;;;5020020;28;20929;-80
2023/09/05 11:21:23;;;;;;;28.63;1.93;;;26.50;1.00;;;;;;5023505;28;20416;-81
2023/09/05 11:23:58;;;;;;;28.60;1.70;;;26.50;1.00;;;;;;5030882;28;20928;-80
2023/09/05 11:26:34;;;;;;;33.60;1.97;;;26.60;1.00;;;;;;5024503;28;20925;-81
2023/09/05 11:29:04;;;;;;;28.60;1.80;;;26.70;1.00;;;;;;5026981;28;20447;-81
2023/09/05 11:31:30;;;;;;;37.13;2.40;;;26.80;1.00;;;;;;5029487;28;20432;-81
2023/09/05 11:33:55;;;;;;;28.87;1.83;;;26.90;1.00;;;;;;5026292;28;20431;-81
2023/09/05 11:36:29;;;;;;;29.90;2.20;;;27.00;1.00;;;;;;5029679;28;20466;-81
2023/09/05 11:38:58;;;;;;;28.90;1.80;;;27.10;1.00;;;;;;5026698;28;20170;-81
2023/09/05 11:41:39;;;;;;;33.23;2.30;;;27.10;1.00;;;;;;5033579;28;20431;-81
2023/09/05 11:44:45;;;;;;;28.90;1.87;;;27.30;1.00;;;;;;5023967;28;20883;-81
2023/09/05 11:47:13;;;;;;;30.70;2.10;;;27.30;1.00;;;;;;5032022;28;20440;-82
2023/09/05 11:49:53;;;;;;;29.90;2.00;;;27.30;1.00;;;;;;5033701;28;20454;-81
2023/09/05 11:52:28;;;;;;;31.73;1.97;;;27.50;1.00;;;;;;5022284;28;20918;-82
2023/09/05 11:54:58;;;;;;;32.73;2.03;;;27.60;1.00;;;;;;5043392;28;20455;-81
2023/09/05 11:57:59;;;;;;;29.60;2.30;;;27.70;1.00;;;;;;5022101;28;20493;-81
2023/09/05 12:00:28;;;;;;;30.43;2.40;;;27.80;1.00;;;;;;5019798;28;20433;-83
2023/09/05 12:03:08;;;;;;;39.43;2.00;;;27.90;1.00;;;;;;5024843;28;20418;-82
2023/09/05 12:05:57;;;;;;;28.80;1.90;;;27.90;1.00;;;;;;5016848;28;20532;-81
2023/09/05 12:08:28;;;;;;;29.67;2.13;;;28.00;1.00;;;;;;5035409;28;20934;-81
2023/09/05 12:10:55;;;;;;;33.07;2.23;;;28.00;1.00;;;;;;5021814;28;20426;-82
2023/09/05 12:13:46;;;;;;;31.10;2.10;;;28.10;1.00;;;;;;5027970;28;20428;-81
2023/09/05 12:16:33;;;;;;;35.63;2.13;;;28.10;1.00;;;;;;5018848;28;20547;-81
2023/09/05 12:19:00;;;;;;;29.20;2.20;;;28.00;1.00;;;;;;5022736;28;20519;-82
2023/09/05 12:21:48;;;;;;;31.40;2.10;;;28.00;1.00;;;;;;5029977;28;20487;-80
2023/09/05 12:24:33;;;;;;;28.67;1.90;;;28.10;1.00;;;;;;5031123;28;20425;-81
2023/09/05 12:27:23;;;;;;;29.10;2.00;;;28.20;1.00;;;;;;5033743;28;20430;-80
2023/09/05 12:29:55;;;;;;;31.50;1.90;;;28.30;1.00;;;;;;5020446;28;20560;-80
2023/09/05 12:32:34;;;;;;;32.07;2.20;;;28.30;1.00;;;;;;5024489;28;20497;-80
2023/09/05 12:38:45;;;;;;;29.53;1.83;;;28.40;1.00;;;;;;5031221;28;20484;-86
2023/09/05 12:41:46;;;;;;;28.70;1.90;;;28.40;1.00;;;;;;5020469;28;20519;-86
2023/09/05 12:44:12;;;;;;;30.40;2.00;;;28.50;1.00;;;;;;5027404;28;20425;-85
2023/09/05 12:53:47;;;;;;;30.00;2.43;;;28.60;1.00;;;;;;5023860;28;20453;-86
2023/09/05 12:56:13;;;;;;;30.47;1.70;;;28.70;1.00;;;;;;5015203;28;20473;-85
2023/09/05 12:58:39;;;;;;;29.83;2.03;;;28.70;1.00;;;;;;5022450;28;20489;-84
2023/09/05 13:01:33;;;;;;;28.23;1.57;;;28.70;1.00;;;;;;5028152;28;20206;-86
2023/09/05 13:04:19;;;;;;;29.00;1.70;;;28.80;1.00;;;;;;5026655;28;20183;-84
2023/09/05 13:10:45;;;;;;;32.07;1.87;;;28.90;1.00;;;;;;5023474;28;20418;-86
2023/09/05 13:13:28;;;;;;;32.53;1.93;;;28.80;1.00;;;;;;5032145;28;20516;-87
2023/09/05 13:16:10;;;;;;;30.70;2.10;;;28.90;1.00;;;;;;5033041;28;20457;-87
2023/09/05 13:19:10;;;;;;;29.30;2.13;;;29.00;1.00;;;;;;5014682;28;20419;-87
2023/09/05 13:21:40;;;;;;;34.70;2.17;;;29.00;1.00;;;;;;5026211;28;20431;-86
2023/09/05 13:24:33;;;;;;;28.47;1.80;;;29.10;1.00;;;;;;5018105;28;20485;-86
2023/09/05 13:27:33;;;;;;;30.67;2.30;;;29.20;1.00;;;;;;5022669;28;20501;-87
2023/09/05 13:30:05;;;;;;;30.67;1.80;;;29.20;1.00;;;;;;5019625;28;20446;-86
2023/09/05 13:33:03;;;;;;;28.80;1.60;;;29.30;1.00;;;;;;5029580;28;20436;-86
2023/09/05 13:35:31;;;;;;;28.47;1.67;;;29.30;1.00;;;;;;5019100;28;20411;-87
2023/09/05 13:37:57;;;;;;;29.90;1.87;;;29.30;1.00;;;;;;5017794;28;20467;-87
2023/09/05 13:40:23;;;;;;;29.93;1.83;;;29.30;1.00;;;;;;5017545;28;20949;-86
2023/09/05 13:42:48;;;;;;;28.70;1.60;;;29.30;1.00;;;;;;5027800;28;20180;-85
2023/09/05 13:45:15;;;;;;;32.57;1.83;;;29.40;1.00;;;;;;5022526;28;20183;-85
2023/09/05 13:47:46;;;;;;;30.67;1.93;;;29.40;1.00;;;;;;5018008;28;20165;-85
2023/09/05 13:50:15;;;;;;;30.10;1.83;;;29.50;1.00;;;;;;5020530;28;20437;-85
2023/09/05 13:52:52;;;;;;;29.07;1.77;;;29.50;1.00;;;;;;5031971;28;20433;-84
2023/09/05 13:55:35;;;;;;;37.37;2.03;;;29.50;1.00;;;;;;5025385;28;20507;-85
2023/09/05 13:58:51;;;;;;;28.70;1.73;;;29.60;1.00;;;;;;5026644;28;20806;-86
2023/09/05 14:01:57;;;;;;;29.37;1.90;;;29.60;1.00;;;;;;5033522;28;20404;-87
2023/09/05 14:04:58;;;;;;;33.77;1.80;;;29.70;1.00;;;;;;5015726;28;20516;-86
2023/09/05 14:07:28;;;;;;;30.73;2.10;;;29.70;1.00;;;;;;5029544;28;20428;-90
2023/09/05 14:13:22;;;;;;;29.00;1.77;;;29.60;1.00;;;;;;5017451;28;20493;-85
2023/09/05 14:16:27;;;;;;;29.33;1.80;;;29.70;1.00;;;;;;5029601;28;20956;-84
2023/09/05 14:18:53;;;;;;;32.20;2.30;;;29.80;1.00;;;;;;5019906;28;20427;-85
2023/09/05 14:21:20;;;;;;;31.10;1.77;;;29.80;1.00;;;;;;5018416;28;20423;-81
2023/09/05 14:23:52;;;;;;;32.00;1.83;;;29.80;1.00;;;;;;5027296;28;20165;-81
2023/09/05 14:26:24;;;;;;;30.30;2.27;;;29.70;1.00;;;;;;5024481;28;20462;-80
2023/09/05 14:29:27;;;;;;;30.50;1.80;;;29.70;1.00;;;;;;5019263;28;20434;-82
2023/09/05 14:32:10;;;;;;;29.47;2.03;;;29.90;1.00;;;;;;5019789;28;20465;-81
2023/09/05 14:34:36;;;;;;;28.70;1.70;;;29.90;1.00;;;;;;5026434;28;20419;-81
2023/09/05 14:37:04;;;;;;;30.33;2.00;;;29.80;1.00;;;;;;5032801;28;20551;-82
2023/09/05 14:39:34;;;;;;;30.07;1.80;;;29.80;1.00;;;;;;5030916;28;20635;-82
2023/09/05 14:41:59;;;;;;;31.87;2.10;;;29.70;1.00;;;;;;5022431;28;20423;-81
2023/09/05 14:44:35;;;;;;;31.63;2.00;;;29.70;1.00;;;;;;5031392;28;20430;-81
2023/09/05 14:47:05;;;;;;;29.57;1.80;;;29.70;1.00;;;;;;5028196;28;20169;-81
2023/09/05 14:49:33;;;;;;;30.50;1.70;;;29.70;1.00;;;;;;5035248;28;20435;-81
2023/09/05 14:52:04;;;;;;;29.50;1.77;;;29.70;1.00;;;;;;5029386;28;20436;-81
2023/09/05 14:54:30;;;;;;;29.17;1.67;;;29.70;1.00;;;;;;5028939;28;20510;-81
2023/09/05 14:56:58;;;;;;;30.90;2.17;;;30.10;1.00;;;;;;5031356;28;20553;-81
2023/09/05 14:59:28;;;;;;;31.63;1.70;;;30.30;1.00;;;;;;5036547;28;20535;-81
2023/09/05 15:01:58;;;;;;;31.23;1.70;;;31.20;1.00;;;;;;5024161;28;20892;-81
2023/09/05 15:04:23;;;;;;;30.43;1.70;;;32.50;1.00;;;;;;5030307;28;20404;-82
2023/09/05 15:06:52;;;;;;;29.10;1.70;;;33.80;1.00;;;;;;5024278;28;21050;-80
2023/09/05 15:09:19;;;;;;;29.97;1.60;;;35.20;1.00;;;;;;5023955;28;20205;-80
2023/09/05 15:11:46;;;;;;;30.23;1.53;;;36.30;1.00;;;;;;5021747;28;20859;-80
2023/09/05 15:14:22;;;;;;;29.17;1.50;;;37.40;1.00;;;;;;5016564;28;20407;-81
2023/09/05 15:16:58;;;;;;;27.67;1.40;;;38.60;1.00;;;;;;5019032;28;20589;-81
2023/09/05 15:19:34;;;;;;;25.90;1.33;;;39.40;1.00;;;;;;5036260;28;20422;-81
2023/09/05 15:21:59;;;;;;;28.80;1.60;;;40.20;1.00;;;;;;5031213;28;20419;-86
2023/09/05 15:24:25;;;;;;;26.30;1.43;;;41.00;1.00;;;;;;5016400;28;20798;-86
2023/09/05 15:26:51;;;;;;;27.70;1.13;;;41.50;1.00;;;;;;5030375;28;20639;-85
2023/09/05 15:29:17;;;;;;;24.70;1.30;;;42.20;1.00;;;;;;5026681;28;20652;-85
2023/09/05 15:31:44;;;;;;;24.50;1.33;;;42.40;1.00;;;;;;5035183;28;20183;-85
2023/09/05 15:34:11;;;;;;;24.27;1.30;;;42.70;1.00;;;;;;5035036;28;20403;-86
2023/09/05 15:36:40;;;;;;;26.03;1.43;;;42.90;1.00;;;;;;5029243;28;20463;-81
2023/09/05 15:39:06;;;;;;;23.73;1.10;;;43.20;1.00;;;;;;5020923;28;20419;-83
2023/09/05 15:41:31;;;;;;;26.03;1.30;;;43.40;1.00;;;;;;5021647;28;20412;-83
2023/09/05 15:43:57;;;;;;;24.70;1.27;;;43.50;1.00;;;;;;5023025;28;20174;-83
2023/09/05 15:46:23;;;;;;;28.37;1.23;;;44.10;1.00;;;;;;5025824;28;20580;-83
2023/09/05 15:48:49;;;;;;;24.20;1.07;;;44.30;1.00;;;;;;5033351;28;20183;-84
2023/09/05 15:51:15;;;;;;;23.77;1.20;;;44.40;1.00;;;;;;5022200;28;20177;-84
2023/09/05 15:53:46;;;;;;;24.47;1.30;;;44.20;1.00;;;;;;5032930;28;20180;-83
2023/09/05 15:56:12;;;;;;;25.03;1.10;;;;;;;;;;5020528;28;21376;-82
2023/09/05 15:58:40;;;;;;;25.13;1.27;;;44.20;1.00;;;;;;5021453;28;20459;-82
2023/09/05 16:01:10;;;;;;;23.70;1.10;;;44.20;1.00;;;;;;5029106;28;20478;-84
2023/09/05 16:04:15;;;;;;;23.73;1.13;;;44.40;1.00;;;;;;5028285;28;20914;-84
2023/09/05 16:06:41;;;;;;;23.17;1.13;;;44.60;1.00;;;;;;5018926;28;20436;-83
2023/09/05 16:09:22;;;;;;;23.43;1.20;;;44.70;1.00;;;;;;5019164;28;20423;-82
2023/09/05 16:12:04;;;;;;;25.57;1.20;;;44.50;1.00;;;;;;5027263;28;20187;-82
2023/09/05 16:14:30;;;;;;;25.20;1.23;;;44.20;1.00;;;;;;5047295;28;20519;-83
2023/09/05 16:17:04;;;;;;;26.93;1.40;;;43.40;1.00;;;;;;5030191;28;20577;-83
2023/09/05 16:19:30;;;;;;;26.77;1.57;;;41.60;1.00;;;;;;5022439;28;20669;-83
2023/09/05 16:21:55;;;;;;;25.90;1.60;;;41.40;1.00;;;;;;5025501;28;20430;-90